Terminal Aerodrome Forecast
Issued by NWS

Home | Current Version | Previous Version | Text Only | Print | Product List | Glossary Off
Versions: 1 2 3 4 5 6 7 8 9 10 11 12 13 14 15 16 17

000
FTUS43 KMPX 141723
TAFRWF
TAF
KRWF 141723Z 1418/1518 31007KT P6SM -SHSN BKN015 OVC025
     FM150000 32010KT P6SM -SHSN BKN030
     FM150200 32010KT P6SM BKN040
     FM150900 27008KT P6SM OVC050
     FM151200 28005KT P6SM OVC025
     FM151700 26006KT P6SM BKN040=

USA.gov is the U.S. government's official web portal to all federal, state and local government web resources and services.